sensor_id;sensor_type;location;lat;lon;timestamp;P1;durP1;ratioP1;P2;durP2;ratioP2
3159;SDS011;1591;51.486;7.146;2022-10-16T00:00:00;3.67;;;2.67;;
3159;SDS011;1591;51.486;7.146;2022-10-16T00:02:27;3.83;;;2.53;;
3159;SDS011;1591;51.486;7.146;2022-10-16T00:04:55;3.03;;;2.70;;
3159;SDS011;1591;51.486;7.146;2022-10-16T00:07:22;6.43;;;2.97;;
3159;SDS011;1591;51.486;7.146;2022-10-16T00:09:49;3.20;;;2.90;;
3159;SDS011;1591;51.486;7.146;2022-10-16T00:12:16;3.87;;;2.57;;
3159;SDS011;1591;51.486;7.146;2022-10-16T00:14:43;2.53;;;2.33;;
3159;SDS011;1591;51.486;7.146;2022-10-16T00:17:09;7.50;;;2.80;;
3159;SDS011;1591;51.486;7.146;2022-10-16T00:19:36;4.10;;;2.80;;
3159;SDS011;1591;51.486;7.146;2022-10-16T00:22:05;5.37;;;2.60;;
3159;SDS011;1591;51.486;7.146;2022-10-16T00:24:31;5.47;;;2.20;;
3159;SDS011;1591;51.486;7.146;2022-10-16T00:26:58;4.27;;;2.37;;
3159;SDS011;1591;51.486;7.146;2022-10-16T00:29:25;9.77;;;2.40;;
3159;SDS011;1591;51.486;7.146;2022-10-16T00:31:52;6.03;;;2.47;;
3159;SDS011;1591;51.486;7.146;2022-10-16T00:34:19;5.10;;;2.37;;
3159;SDS011;1591;51.486;7.146;2022-10-16T00:36:46;8.07;;;2.47;;
3159;SDS011;1591;51.486;7.146;2022-10-16T00:39:14;4.90;;;2.50;;
3159;SDS011;1591;51.486;7.146;2022-10-16T00:41:41;3.00;;;2.50;;
3159;SDS011;1591;51.486;7.146;2022-10-16T00:47:13;2.70;;;2.37;;
3159;SDS011;1591;51.486;7.146;2022-10-16T00:49:47;3.30;;;2.03;;
3159;SDS011;1591;51.486;7.146;2022-10-16T00:52:16;3.80;;;2.23;;
3159;SDS011;1591;51.486;7.146;2022-10-16T00:54:45;2.20;;;1.90;;
3159;SDS011;1591;51.486;7.146;2022-10-16T07:27:45;1.90;;;1.80;;
3159;SDS011;1591;51.486;7.146;2022-10-16T07:35:07;1.87;;;1.73;;
3159;SDS011;1591;51.486;7.146;2022-10-16T07:37:35;1.97;;;1.87;;
3159;SDS011;1591;51.486;7.146;2022-10-16T07:40:03;4.93;;;1.93;;
3159;SDS011;1591;51.486;7.146;2022-10-16T07:42:33;3.40;;;1.80;;
3159;SDS011;1591;51.486;7.146;2022-10-16T07:45:00;1.40;;;1.40;;
3159;SDS011;1591;51.486;7.146;2022-10-16T07:47:28;2.67;;;2.30;;
3159;SDS011;1591;51.486;7.146;2022-10-16T07:49:56;5.53;;;3.90;;
3159;SDS011;1591;51.486;7.146;2022-10-16T07:52:23;3.10;;;2.83;;
3159;SDS011;1591;51.486;7.146;2022-10-16T07:54:50;5.03;;;3.00;;
3159;SDS011;1591;51.486;7.146;2022-10-16T07:57:18;9.90;;;2.47;;
3159;SDS011;1591;51.486;7.146;2022-10-16T07:59:49;2.10;;;2.00;;
3159;SDS011;1591;51.486;7.146;2022-10-16T08:02:16;1.80;;;1.70;;
3159;SDS011;1591;51.486;7.146;2022-10-16T08:04:44;2.47;;;2.37;;
3159;SDS011;1591;51.486;7.146;2022-10-16T08:07:13;2.20;;;2.00;;
3159;SDS011;1591;51.486;7.146;2022-10-16T08:09:39;1.93;;;1.83;;
3159;SDS011;1591;51.486;7.146;2022-10-16T08:12:07;1.90;;;1.80;;
3159;SDS011;1591;51.486;7.146;2022-10-16T08:14:35;5.37;;;2.27;;
3159;SDS011;1591;51.486;7.146;2022-10-16T08:17:04;1.97;;;1.80;;
3159;SDS011;1591;51.486;7.146;2022-10-16T08:19:31;3.43;;;2.00;;
3159;SDS011;1591;51.486;7.146;2022-10-16T08:21:59;4.23;;;1.60;;
3159;SDS011;1591;51.486;7.146;2022-10-16T08:24:26;1.87;;;1.53;;
3159;SDS011;1591;51.486;7.146;2022-10-16T08:26:55;2.10;;;1.40;;
3159;SDS011;1591;51.486;7.146;2022-10-16T08:29:22;2.00;;;1.70;;
3159;SDS011;1591;51.486;7.146;2022-10-16T08:31:49;1.67;;;1.57;;
3159;SDS011;1591;51.486;7.146;2022-10-16T08:34:18;1.80;;;1.70;;
3159;SDS011;1591;51.486;7.146;2022-10-16T08:36:45;6.23;;;1.60;;
3159;SDS011;1591;51.486;7.146;2022-10-16T08:39:12;2.27;;;1.30;;
3159;SDS011;1591;51.486;7.146;2022-10-16T08:41:58;2.50;;;1.60;;
3159;SDS011;1591;51.486;7.146;2022-10-16T08:47:58;1.53;;;1.40;;
3159;SDS011;1591;51.486;7.146;2022-10-16T08:50:39;2.60;;;1.23;;
3159;SDS011;1591;51.486;7.146;2022-10-16T08:53:09;2.90;;;1.80;;
3159;SDS011;1591;51.486;7.146;2022-10-16T08:55:42;1.50;;;1.37;;
3159;SDS011;1591;51.486;7.146;2022-10-16T08:58:13;8.93;;;1.60;;
3159;SDS011;1591;51.486;7.146;2022-10-16T09:00:45;3.13;;;1.17;;
3159;SDS011;1591;51.486;7.146;2022-10-16T09:03:23;1.37;;;1.20;;
3159;SDS011;1591;51.486;7.146;2022-10-16T09:12:15;1.97;;;1.50;;
3159;SDS011;1591;51.486;7.146;2022-10-16T09:14:53;3.33;;;1.80;;
3159;SDS011;1591;51.486;7.146;2022-10-16T09:17:36;8.03;;;1.93;;
3159;SDS011;1591;51.486;7.146;2022-10-16T09:20:18;2.13;;;1.20;;
3159;SDS011;1591;51.486;7.146;2022-10-16T09:22:56;1.75;;;1.40;;
3159;SDS011;1591;51.486;7.146;2022-10-16T09:25:38;4.90;;;1.30;;
3159;SDS011;1591;51.486;7.146;2022-10-16T09:28:09;2.63;;;1.20;;
3159;SDS011;1591;51.486;7.146;2022-10-16T09:30:36;1.90;;;0.90;;
3159;SDS011;1591;51.486;7.146;2022-10-16T09:33:04;1.20;;;1.20;;
3159;SDS011;1591;51.486;7.146;2022-10-16T09:35:36;1.13;;;1.10;;
3159;SDS011;1591;51.486;7.146;2022-10-16T09:38:06;0.93;;;0.93;;
3159;SDS011;1591;51.486;7.146;2022-10-16T09:40:36;3.27;;;1.10;;
3159;SDS011;1591;51.486;7.146;2022-10-16T09:43:14;5.60;;;1.63;;
3159;SDS011;1591;51.486;7.146;2022-10-16T09:45:53;3.67;;;1.60;;
3159;SDS011;1591;51.486;7.146;2022-10-16T09:48:22;1.93;;;1.10;;
3159;SDS011;1591;51.486;7.146;2022-10-16T09:50:58;3.30;;;1.30;;
3159;SDS011;1591;51.486;7.146;2022-10-16T09:53:37;3.40;;;1.50;;
3159;SDS011;1591;51.486;7.146;2022-10-16T09:56:09;2.00;;;1.20;;
3159;SDS011;1591;51.486;7.146;2022-10-16T09:58:41;3.63;;;1.50;;
3159;SDS011;1591;51.486;7.146;2022-10-16T10:01:12;2.10;;;1.10;;
3159;SDS011;1591;51.486;7.146;2022-10-16T10:03:41;2.17;;;1.63;;
3159;SDS011;1591;51.486;7.146;2022-10-16T10:06:15;4.50;;;2.30;;
3159;SDS011;1591;51.486;7.146;2022-10-16T10:08:58;6.03;;;3.80;;
3159;SDS011;1591;51.486;7.146;2022-10-16T10:14:23;3.17;;;1.30;;
3159;SDS011;1591;51.486;7.146;2022-10-16T10:17:06;3.63;;;1.40;;
3159;SDS011;1591;51.486;7.146;2022-10-16T10:19:44;2.27;;;1.03;;
3159;SDS011;1591;51.486;7.146;2022-10-16T10:22:19;3.30;;;1.40;;
3159;SDS011;1591;51.486;7.146;2022-10-16T10:27:56;3.00;;;1.77;;
3159;SDS011;1591;51.486;7.146;2022-10-16T10:30:40;5.47;;;1.20;;
3159;SDS011;1591;51.486;7.146;2022-10-16T10:33:17;2.20;;;1.57;;
3159;SDS011;1591;51.486;7.146;2022-10-16T10:35:55;1.70;;;1.20;;
3159;SDS011;1591;51.486;7.146;2022-10-16T10:38:34;1.80;;;1.20;;
3159;SDS011;1591;51.486;7.146;2022-10-16T10:41:18;1.50;;;1.40;;
3159;SDS011;1591;51.486;7.146;2022-10-16T10:44:11;1.50;;;1.40;;
3159;SDS011;1591;51.486;7.146;2022-10-16T10:46:51;1.40;;;1.30;;
3159;SDS011;1591;51.486;7.146;2022-10-16T10:49:27;3.70;;;1.53;;
3159;SDS011;1591;51.486;7.146;2022-10-16T10:52:13;4.87;;;1.30;;
3159;SDS011;1591;51.486;7.146;2022-10-16T10:55:02;2.93;;;1.80;;
3159;SDS011;1591;51.486;7.146;2022-10-16T10:57:46;1.27;;;1.27;;
3159;SDS011;1591;51.486;7.146;2022-10-16T11:00:42;6.07;;;2.30;;
3159;SDS011;1591;51.486;7.146;2022-10-16T11:03:25;1.67;;;1.60;;
3159;SDS011;1591;51.486;7.146;2022-10-16T11:06:08;1.70;;;1.20;;
3159;SDS011;1591;51.486;7.146;2022-10-16T11:08:43;2.90;;;1.30;;
3159;SDS011;1591;51.486;7.146;2022-10-16T11:11:16;5.13;;;1.40;;
3159;SDS011;1591;51.486;7.146;2022-10-16T11:13:53;4.53;;;1.53;;
3159;SDS011;1591;51.486;7.146;2022-10-16T11:16:26;2.50;;;1.57;;
3159;SDS011;1591;51.486;7.146;2022-10-16T11:18:58;1.73;;;1.53;;
3159;SDS011;1591;51.486;7.146;2022-10-16T11:21:33;2.80;;;1.57;;
3159;SDS011;1591;51.486;7.146;2022-10-16T11:24:17;2.30;;;1.20;;
3159;SDS011;1591;51.486;7.146;2022-10-16T11:26:49;1.57;;;1.47;;
3159;SDS011;1591;51.486;7.146;2022-10-16T11:29:23;3.60;;;1.37;;
3159;SDS011;1591;51.486;7.146;2022-10-16T11:31:57;1.67;;;1.40;;
3159;SDS011;1591;51.486;7.146;2022-10-16T11:34:32;2.50;;;1.33;;
3159;SDS011;1591;51.486;7.146;2022-10-16T11:37:08;2.20;;;1.00;;
3159;SDS011;1591;51.486;7.146;2022-10-16T11:39:41;1.23;;;1.13;;
3159;SDS011;1591;51.486;7.146;2022-10-16T11:42:10;3.13;;;1.20;;
3159;SDS011;1591;51.486;7.146;2022-10-16T11:44:46;9.63;;;1.30;;
3159;SDS011;1591;51.486;7.146;2022-10-16T11:47:32;2.00;;;1.27;;
3159;SDS011;1591;51.486;7.146;2022-10-16T11:50:02;0.93;;;0.80;;
3159;SDS011;1591;51.486;7.146;2022-10-16T11:52:40;2.40;;;1.00;;
3159;SDS011;1591;51.486;7.146;2022-10-16T11:55:18;2.03;;;1.10;;
3159;SDS011;1591;51.486;7.146;2022-10-16T11:57:51;7.40;;;1.10;;
3159;SDS011;1591;51.486;7.146;2022-10-16T12:00:26;4.03;;;1.03;;
3159;SDS011;1591;51.486;7.146;2022-10-16T12:02:58;1.40;;;0.90;;
3159;SDS011;1591;51.486;7.146;2022-10-16T12:05:37;4.17;;;1.20;;
3159;SDS011;1591;51.486;7.146;2022-10-16T12:08:24;6.20;;;1.40;;
3159;SDS011;1591;51.486;7.146;2022-10-16T12:10:52;2.30;;;1.00;;
3159;SDS011;1591;51.486;7.146;2022-10-16T12:16:06;1.17;;;1.07;;
3159;SDS011;1591;51.486;7.146;2022-10-16T12:18:48;1.90;;;1.00;;
3159;SDS011;1591;51.486;7.146;2022-10-16T12:21:16;1.83;;;0.80;;
3159;SDS011;1591;51.486;7.146;2022-10-16T12:23:47;1.13;;;1.00;;
3159;SDS011;1591;51.486;7.146;2022-10-16T12:26:23;5.53;;;1.07;;
3159;SDS011;1591;51.486;7.146;2022-10-16T12:28:52;3.43;;;1.10;;
3159;SDS011;1591;51.486;7.146;2022-10-16T12:31:21;4.07;;;1.30;;
3159;SDS011;1591;51.486;7.146;2022-10-16T12:33:54;1.53;;;1.10;;
3159;SDS011;1591;51.486;7.146;2022-10-16T12:36:27;1.67;;;0.90;;
3159;SDS011;1591;51.486;7.146;2022-10-16T12:38:59;2.50;;;1.20;;
3159;SDS011;1591;51.486;7.146;2022-10-16T12:41:27;3.50;;;1.00;;
3159;SDS011;1591;51.486;7.146;2022-10-16T12:43:57;1.70;;;1.10;;
3159;SDS011;1591;51.486;7.146;2022-10-16T12:46:37;2.37;;;1.10;;
3159;SDS011;1591;51.486;7.146;2022-10-16T12:49:06;1.00;;;0.90;;
3159;SDS011;1591;51.486;7.146;2022-10-16T12:51:55;1.37;;;1.00;;
3159;SDS011;1591;51.486;7.146;2022-10-16T12:54:24;3.07;;;1.20;;
3159;SDS011;1591;51.486;7.146;2022-10-16T12:57:08;3.80;;;1.00;;
3159;SDS011;1591;51.486;7.146;2022-10-16T12:59:57;2.67;;;1.13;;
3159;SDS011;1591;51.486;7.146;2022-10-16T13:02:43;7.90;;;1.33;;
3159;SDS011;1591;51.486;7.146;2022-10-16T13:05:43;3.07;;;1.13;;
3159;SDS011;1591;51.486;7.146;2022-10-16T13:08:28;2.43;;;1.30;;
3159;SDS011;1591;51.486;7.146;2022-10-16T13:11:15;3.83;;;1.40;;
3159;SDS011;1591;51.486;7.146;2022-10-16T13:16:57;6.07;;;1.20;;
3159;SDS011;1591;51.486;7.146;2022-10-16T13:19:38;5.23;;;1.30;;
3159;SDS011;1591;51.486;7.146;2022-10-16T13:22:15;1.63;;;0.90;;
3159;SDS011;1591;51.486;7.146;2022-10-16T13:24:53;5.23;;;1.10;;
3159;SDS011;1591;51.486;7.146;2022-10-16T13:27:38;2.37;;;1.07;;
3159;SDS011;1591;51.486;7.146;2022-10-16T13:30:13;2.50;;;1.00;;
3159;SDS011;1591;51.486;7.146;2022-10-16T13:32:45;1.30;;;1.23;;
3159;SDS011;1591;51.486;7.146;2022-10-16T13:35:23;3.03;;;1.03;;
3159;SDS011;1591;51.486;7.146;2022-10-16T13:38:02;2.77;;;1.30;;
3159;SDS011;1591;51.486;7.146;2022-10-16T13:40:31;1.90;;;1.20;;
3159;SDS011;1591;51.486;7.146;2022-10-16T13:42:59;1.43;;;1.20;;
3159;SDS011;1591;51.486;7.146;2022-10-16T13:45:26;1.80;;;0.93;;
3159;SDS011;1591;51.486;7.146;2022-10-16T13:48:01;6.63;;;1.20;;
3159;SDS011;1591;51.486;7.146;2022-10-16T13:50:31;1.57;;;1.10;;
3159;SDS011;1591;51.486;7.146;2022-10-16T13:53:04;2.27;;;1.43;;
3159;SDS011;1591;51.486;7.146;2022-10-16T13:55:32;1.23;;;1.10;;
3159;SDS011;1591;51.486;7.146;2022-10-16T13:58:07;2.07;;;1.63;;
3159;SDS011;1591;51.486;7.146;2022-10-16T14:00:38;1.20;;;1.10;;
3159;SDS011;1591;51.486;7.146;2022-10-16T14:03:07;2.20;;;1.20;;
3159;SDS011;1591;51.486;7.146;2022-10-16T14:05:43;2.03;;;1.40;;
3159;SDS011;1591;51.486;7.146;2022-10-16T14:08:15;3.67;;;2.00;;
3159;SDS011;1591;51.486;7.146;2022-10-16T14:10:43;7.27;;;3.63;;
3159;SDS011;1591;51.486;7.146;2022-10-16T14:13:16;2.37;;;2.17;;
3159;SDS011;1591;51.486;7.146;2022-10-16T14:15:46;5.13;;;1.20;;
3159;SDS011;1591;51.486;7.146;2022-10-16T14:18:17;1.83;;;1.30;;
3159;SDS011;1591;51.486;7.146;2022-10-16T14:20:49;2.60;;;1.23;;
3159;SDS011;1591;51.486;7.146;2022-10-16T14:23:19;6.17;;;1.40;;
3159;SDS011;1591;51.486;7.146;2022-10-16T14:25:51;1.70;;;1.20;;
3159;SDS011;1591;51.486;7.146;2022-10-16T14:28:19;5.07;;;1.90;;
3159;SDS011;1591;51.486;7.146;2022-10-16T14:30:51;4.00;;;2.40;;
3159;SDS011;1591;51.486;7.146;2022-10-16T14:33:23;2.50;;;1.83;;
3159;SDS011;1591;51.486;7.146;2022-10-16T14:36:00;3.00;;;1.90;;
3159;SDS011;1591;51.486;7.146;2022-10-16T14:38:31;1.70;;;1.43;;
3159;SDS011;1591;51.486;7.146;2022-10-16T14:40:59;5.87;;;2.10;;
3159;SDS011;1591;51.486;7.146;2022-10-16T14:43:29;7.33;;;2.70;;
3159;SDS011;1591;51.486;7.146;2022-10-16T14:46:00;3.73;;;1.90;;
3159;SDS011;1591;51.486;7.146;2022-10-16T14:48:30;3.70;;;1.53;;
3159;SDS011;1591;51.486;7.146;2022-10-16T14:50:59;2.70;;;2.00;;
3159;SDS011;1591;51.486;7.146;2022-10-16T14:53:26;3.40;;;2.33;;
3159;SDS011;1591;51.486;7.146;2022-10-16T14:55:53;2.23;;;2.00;;
3159;SDS011;1591;51.486;7.146;2022-10-16T14:58:21;3.70;;;2.00;;
3159;SDS011;1591;51.486;7.146;2022-10-16T15:00:50;5.50;;;2.53;;
3159;SDS011;1591;51.486;7.146;2022-10-16T15:03:17;6.90;;;3.03;;
3159;SDS011;1591;51.486;7.146;2022-10-16T15:05:44;3.63;;;2.40;;
3159;SDS011;1591;51.486;7.146;2022-10-16T15:08:12;7.47;;;4.40;;
3159;SDS011;1591;51.486;7.146;2022-10-16T15:10:40;7.77;;;4.80;;
3159;SDS011;1591;51.486;7.146;2022-10-16T15:13:11;3.77;;;3.43;;
3159;SDS011;1591;51.486;7.146;2022-10-16T15:15:40;6.80;;;2.30;;
3159;SDS011;1591;51.486;7.146;2022-10-16T15:18:10;3.23;;;2.67;;
3159;SDS011;1591;51.486;7.146;2022-10-16T15:20:37;4.40;;;1.80;;
3159;SDS011;1591;51.486;7.146;2022-10-16T15:23:06;1.93;;;1.57;;
3159;SDS011;1591;51.486;7.146;2022-10-16T15:25:41;2.00;;;1.80;;
3159;SDS011;1591;51.486;7.146;2022-10-16T15:28:11;2.30;;;1.70;;
3159;SDS011;1591;51.486;7.146;2022-10-16T15:30:39;5.03;;;1.30;;
3159;SDS011;1591;51.486;7.146;2022-10-16T15:33:10;4.77;;;1.40;;
3159;SDS011;1591;51.486;7.146;2022-10-16T15:35:39;1.53;;;1.37;;
3159;SDS011;1591;51.486;7.146;2022-10-16T15:38:06;2.70;;;1.50;;
3159;SDS011;1591;51.486;7.146;2022-10-16T15:40:37;2.13;;;1.47;;
3159;SDS011;1591;51.486;7.146;2022-10-16T15:43:06;6.97;;;1.37;;
3159;SDS011;1591;51.486;7.146;2022-10-16T15:45:33;4.60;;;1.50;;
3159;SDS011;1591;51.486;7.146;2022-10-16T15:48:01;6.90;;;3.20;;
3159;SDS011;1591;51.486;7.146;2022-10-16T15:50:28;29.93;;;17.77;;
3159;SDS011;1591;51.486;7.146;2022-10-16T15:52:57;38.00;;;23.40;;
3159;SDS011;1591;51.486;7.146;2022-10-16T15:55:24;53.60;;;30.73;;
3159;SDS011;1591;51.486;7.146;2022-10-16T15:57:51;67.63;;;42.67;;
3159;SDS011;1591;51.486;7.146;2022-10-16T16:00:19;57.97;;;38.40;;
3159;SDS011;1591;51.486;7.146;2022-10-16T16:02:50;37.37;;;22.37;;
3159;SDS011;1591;51.486;7.146;2022-10-16T16:05:19;38.10;;;21.70;;
3159;SDS011;1591;51.486;7.146;2022-10-16T16:07:47;40.90;;;21.47;;
3159;SDS011;1591;51.486;7.146;2022-10-16T16:10:14;55.43;;;30.80;;
3159;SDS011;1591;51.486;7.146;2022-10-16T16:12:42;20.70;;;12.63;;
3159;SDS011;1591;51.486;7.146;2022-10-16T16:15:14;62.83;;;33.10;;
3159;SDS011;1591;51.486;7.146;2022-10-16T16:17:42;46.80;;;26.83;;
3159;SDS011;1591;51.486;7.146;2022-10-16T16:20:10;63.50;;;35.37;;
3159;SDS011;1591;51.486;7.146;2022-10-16T16:22:37;87.87;;;47.70;;
3159;SDS011;1591;51.486;7.146;2022-10-16T16:25:05;65.67;;;35.40;;
3159;SDS011;1591;51.486;7.146;2022-10-16T16:27:32;40.80;;;24.10;;
3159;SDS011;1591;51.486;7.146;2022-10-16T16:29:59;20.93;;;10.90;;
3159;SDS011;1591;51.486;7.146;2022-10-16T16:32:28;19.93;;;11.07;;
3159;SDS011;1591;51.486;7.146;2022-10-16T16:34:58;8.50;;;4.07;;
3159;SDS011;1591;51.486;7.146;2022-10-16T16:37:25;6.40;;;5.13;;
3159;SDS011;1591;51.486;7.146;2022-10-16T16:39:51;5.97;;;4.07;;
3159;SDS011;1591;51.486;7.146;2022-10-16T16:42:20;5.17;;;3.60;;
3159;SDS011;1591;51.486;7.146;2022-10-16T16:44:47;6.40;;;3.77;;
3159;SDS011;1591;51.486;7.146;2022-10-16T16:47:14;8.20;;;3.90;;
3159;SDS011;1591;51.486;7.146;2022-10-16T16:49:41;5.87;;;2.90;;
3159;SDS011;1591;51.486;7.146;2022-10-16T16:52:09;7.73;;;3.47;;
3159;SDS011;1591;51.486;7.146;2022-10-16T16:54:36;5.90;;;3.37;;
3159;SDS011;1591;51.486;7.146;2022-10-16T16:57:03;11.43;;;3.90;;
3159;SDS011;1591;51.486;7.146;2022-10-16T16:59:30;7.53;;;3.10;;
3159;SDS011;1591;51.486;7.146;2022-10-16T17:01:58;8.17;;;4.80;;
3159;SDS011;1591;51.486;7.146;2022-10-16T17:04:25;6.30;;;4.03;;
3159;SDS011;1591;51.486;7.146;2022-10-16T17:06:53;7.90;;;3.60;;
3159;SDS011;1591;51.486;7.146;2022-10-16T17:09:24;6.27;;;3.17;;
3159;SDS011;1591;51.486;7.146;2022-10-16T17:11:51;4.10;;;3.10;;
3159;SDS011;1591;51.486;7.146;2022-10-16T17:14:18;11.77;;;3.70;;
3159;SDS011;1591;51.486;7.146;2022-10-16T17:16:45;7.40;;;3.10;;
3159;SDS011;1591;51.486;7.146;2022-10-16T17:19:14;7.57;;;3.20;;
3159;SDS011;1591;51.486;7.146;2022-10-16T17:21:44;10.30;;;3.60;;
3159;SDS011;1591;51.486;7.146;2022-10-16T17:24:15;7.73;;;3.50;;
3159;SDS011;1591;51.486;7.146;2022-10-16T17:26:45;4.87;;;3.43;;
3159;SDS011;1591;51.486;7.146;2022-10-16T17:29:14;5.53;;;3.47;;
3159;SDS011;1591;51.486;7.146;2022-10-16T17:31:43;9.17;;;3.90;;
3159;SDS011;1591;51.486;7.146;2022-10-16T17:34:13;4.63;;;3.40;;
3159;SDS011;1591;51.486;7.146;2022-10-16T17:36:41;5.67;;;3.67;;
3159;SDS011;1591;51.486;7.146;2022-10-16T17:39:11;4.73;;;3.70;;
3159;SDS011;1591;51.486;7.146;2022-10-16T17:41:41;4.77;;;3.60;;
3159;SDS011;1591;51.486;7.146;2022-10-16T17:44:11;11.27;;;3.40;;
3159;SDS011;1591;51.486;7.146;2022-10-16T17:46:44;9.90;;;3.40;;
3159;SDS011;1591;51.486;7.146;2022-10-16T17:49:11;6.43;;;3.80;;
3159;SDS011;1591;51.486;7.146;2022-10-16T17:51:38;6.77;;;3.90;;
3159;SDS011;1591;51.486;7.146;2022-10-16T17:54:06;7.97;;;4.40;;
3159;SDS011;1591;51.486;7.146;2022-10-16T17:56:35;10.53;;;4.50;;
3159;SDS011;1591;51.486;7.146;2022-10-16T17:59:03;8.30;;;4.20;;
3159;SDS011;1591;51.486;7.146;2022-10-16T18:01:32;7.43;;;3.97;;
3159;SDS011;1591;51.486;7.146;2022-10-16T18:04:05;5.53;;;3.90;;
3159;SDS011;1591;51.486;7.146;2022-10-16T18:06:34;6.27;;;4.00;;
3159;SDS011;1591;51.486;7.146;2022-10-16T18:09:02;10.30;;;3.80;;
3159;SDS011;1591;51.486;7.146;2022-10-16T18:11:30;4.37;;;3.43;;
3159;SDS011;1591;51.486;7.146;2022-10-16T18:13:58;7.63;;;3.50;;
3159;SDS011;1591;51.486;7.146;2022-10-16T18:16:26;7.67;;;3.63;;
3159;SDS011;1591;51.486;7.146;2022-10-16T18:18:56;11.43;;;3.80;;
3159;SDS011;1591;51.486;7.146;2022-10-16T18:21:25;12.13;;;3.80;;
3159;SDS011;1591;51.486;7.146;2022-10-16T18:23:53;5.03;;;4.33;;
3159;SDS011;1591;51.486;7.146;2022-10-16T18:26:22;10.93;;;4.30;;
3159;SDS011;1591;51.486;7.146;2022-10-16T18:28:50;6.93;;;4.30;;
3159;SDS011;1591;51.486;7.146;2022-10-16T18:31:18;15.20;;;4.43;;
3159;SDS011;1591;51.486;7.146;2022-10-16T18:33:47;6.20;;;4.40;;
3159;SDS011;1591;51.486;7.146;2022-10-16T18:36:17;6.73;;;4.20;;
3159;SDS011;1591;51.486;7.146;2022-10-16T18:38:46;12.70;;;4.63;;
3159;SDS011;1591;51.486;7.146;2022-10-16T18:41:13;7.53;;;5.90;;
3159;SDS011;1591;51.486;7.146;2022-10-16T18:43:41;8.70;;;4.10;;
3159;SDS011;1591;51.486;7.146;2022-10-16T18:46:09;9.00;;;5.30;;
3159;SDS011;1591;51.486;7.146;2022-10-16T18:48:39;9.03;;;4.93;;
3159;SDS011;1591;51.486;7.146;2022-10-16T18:51:09;5.67;;;4.50;;
3159;SDS011;1591;51.486;7.146;2022-10-16T18:53:46;11.60;;;4.03;;
3159;SDS011;1591;51.486;7.146;2022-10-16T18:56:17;5.30;;;3.80;;
3159;SDS011;1591;51.486;7.146;2022-10-16T18:58:47;6.90;;;3.73;;
3159;SDS011;1591;51.486;7.146;2022-10-16T19:01:18;6.77;;;4.10;;
3159;SDS011;1591;51.486;7.146;2022-10-16T19:07:23;9.53;;;4.10;;
3159;SDS011;1591;51.486;7.146;2022-10-16T19:09:53;6.10;;;4.00;;
3159;SDS011;1591;51.486;7.146;2022-10-16T19:12:20;4.70;;;3.60;;
3159;SDS011;1591;51.486;7.146;2022-10-16T19:14:54;5.60;;;4.00;;
3159;SDS011;1591;51.486;7.146;2022-10-16T19:17:23;5.70;;;3.90;;
3159;SDS011;1591;51.486;7.146;2022-10-16T19:19:51;7.43;;;3.97;;
3159;SDS011;1591;51.486;7.146;2022-10-16T19:22:21;7.83;;;3.50;;
3159;SDS011;1591;51.486;7.146;2022-10-16T19:25:11;7.30;;;3.60;;
3159;SDS011;1591;51.486;7.146;2022-10-16T19:27:43;12.53;;;5.40;;
3159;SDS011;1591;51.486;7.146;2022-10-16T19:30:14;3.83;;;3.20;;
3159;SDS011;1591;51.486;7.146;2022-10-16T19:32:44;6.67;;;3.23;;
3159;SDS011;1591;51.486;7.146;2022-10-16T19:35:14;7.43;;;3.27;;
3159;SDS011;1591;51.486;7.146;2022-10-16T19:37:49;5.80;;;3.23;;
3159;SDS011;1591;51.486;7.146;2022-10-16T19:40:18;6.00;;;4.00;;
3159;SDS011;1591;51.486;7.146;2022-10-16T19:42:46;10.03;;;3.50;;
3159;SDS011;1591;51.486;7.146;2022-10-16T19:45:13;6.57;;;3.53;;
3159;SDS011;1591;51.486;7.146;2022-10-16T19:47:42;6.63;;;4.00;;
3159;SDS011;1591;51.486;7.146;2022-10-16T19:50:10;7.33;;;3.50;;
3159;SDS011;1591;51.486;7.146;2022-10-16T19:52:43;3.50;;;3.20;;
3159;SDS011;1591;51.486;7.146;2022-10-16T19:55:11;5.50;;;3.30;;
3159;SDS011;1591;51.486;7.146;2022-10-16T19:57:40;4.60;;;3.77;;
3159;SDS011;1591;51.486;7.146;2022-10-16T20:00:08;4.83;;;3.83;;
3159;SDS011;1591;51.486;7.146;2022-10-16T20:02:38;7.43;;;3.50;;
3159;SDS011;1591;51.486;7.146;2022-10-16T20:05:06;4.30;;;3.90;;
3159;SDS011;1591;51.486;7.146;2022-10-16T20:07:34;7.67;;;3.37;;
3159;SDS011;1591;51.486;7.146;2022-10-16T20:10:04;3.87;;;3.53;;
3159;SDS011;1591;51.486;7.146;2022-10-16T20:12:33;3.93;;;3.53;;
3159;SDS011;1591;51.486;7.146;2022-10-16T20:15:01;3.80;;;3.50;;
3159;SDS011;1591;51.486;7.146;2022-10-16T20:17:29;3.90;;;3.60;;
3159;SDS011;1591;51.486;7.146;2022-10-16T20:19:56;8.60;;;4.03;;
3159;SDS011;1591;51.486;7.146;2022-10-16T20:22:23;4.97;;;4.40;;
3159;SDS011;1591;51.486;7.146;2022-10-16T20:24:50;5.53;;;4.00;;
3159;SDS011;1591;51.486;7.146;2022-10-16T20:27:17;6.37;;;5.53;;
3159;SDS011;1591;51.486;7.146;2022-10-16T20:29:44;5.77;;;5.17;;
3159;SDS011;1591;51.486;7.146;2022-10-16T20:32:12;8.20;;;7.40;;
3159;SDS011;1591;51.486;7.146;2022-10-16T20:34:39;7.57;;;6.90;;
3159;SDS011;1591;51.486;7.146;2022-10-16T20:37:10;8.70;;;7.07;;
3159;SDS011;1591;51.486;7.146;2022-10-16T20:39:37;9.57;;;6.23;;
3159;SDS011;1591;51.486;7.146;2022-10-16T20:42:04;8.90;;;6.73;;
3159;SDS011;1591;51.486;7.146;2022-10-16T20:44:34;7.07;;;5.73;;
3159;SDS011;1591;51.486;7.146;2022-10-16T20:47:00;9.70;;;6.80;;
3159;SDS011;1591;51.486;7.146;2022-10-16T20:49:29;8.90;;;6.03;;
3159;SDS011;1591;51.486;7.146;2022-10-16T20:51:56;6.97;;;6.10;;
3159;SDS011;1591;51.486;7.146;2022-10-16T20:54:23;10.93;;;8.13;;
3159;SDS011;1591;51.486;7.146;2022-10-16T20:56:50;14.07;;;10.53;;
3159;SDS011;1591;51.486;7.146;2022-10-16T20:59:17;14.03;;;11.40;;
3159;SDS011;1591;51.486;7.146;2022-10-16T21:01:44;17.83;;;11.17;;
3159;SDS011;1591;51.486;7.146;2022-10-16T21:04:12;13.80;;;10.60;;
3159;SDS011;1591;51.486;7.146;2022-10-16T21:06:41;15.20;;;10.10;;
3159;SDS011;1591;51.486;7.146;2022-10-16T21:09:09;19.33;;;12.03;;
3159;SDS011;1591;51.486;7.146;2022-10-16T21:11:44;20.80;;;11.97;;
3159;SDS011;1591;51.486;7.146;2022-10-16T21:14:12;14.67;;;11.83;;
3159;SDS011;1591;51.486;7.146;2022-10-16T21:16:38;19.27;;;12.90;;
3159;SDS011;1591;51.486;7.146;2022-10-16T21:19:06;15.87;;;11.67;;
3159;SDS011;1591;51.486;7.146;2022-10-16T21:21:33;16.33;;;12.50;;
3159;SDS011;1591;51.486;7.146;2022-10-16T21:24:05;15.33;;;12.27;;
3159;SDS011;1591;51.486;7.146;2022-10-16T21:26:33;17.50;;;11.63;;
3159;SDS011;1591;51.486;7.146;2022-10-16T21:29:01;20.50;;;13.03;;
3159;SDS011;1591;51.486;7.146;2022-10-16T21:31:30;21.40;;;13.13;;
3159;SDS011;1591;51.486;7.146;2022-10-16T21:33:58;19.07;;;12.90;;
3159;SDS011;1591;51.486;7.146;2022-10-16T21:36:26;14.87;;;12.43;;
3159;SDS011;1591;51.486;7.146;2022-10-16T21:38:54;14.17;;;10.97;;
3159;SDS011;1591;51.486;7.146;2022-10-16T21:41:27;16.50;;;11.60;;
3159;SDS011;1591;51.486;7.146;2022-10-16T21:43:55;15.17;;;11.77;;
3159;SDS011;1591;51.486;7.146;2022-10-16T21:46:24;18.63;;;12.80;;
3159;SDS011;1591;51.486;7.146;2022-10-16T21:48:52;15.93;;;11.77;;
3159;SDS011;1591;51.486;7.146;2022-10-16T21:51:23;18.67;;;12.23;;
3159;SDS011;1591;51.486;7.146;2022-10-16T21:53:51;16.70;;;12.70;;
3159;SDS011;1591;51.486;7.146;2022-10-16T21:56:18;16.27;;;12.60;;
3159;SDS011;1591;51.486;7.146;2022-10-16T21:58:47;15.90;;;12.83;;
3159;SDS011;1591;51.486;7.146;2022-10-16T22:01:15;20.37;;;13.43;;
3159;SDS011;1591;51.486;7.146;2022-10-16T22:03:44;19.67;;;14.90;;
3159;SDS011;1591;51.486;7.146;2022-10-16T22:06:13;19.97;;;15.17;;
3159;SDS011;1591;51.486;7.146;2022-10-16T22:08:42;25.60;;;18.63;;
3159;SDS011;1591;51.486;7.146;2022-10-16T22:11:12;27.90;;;18.57;;
3159;SDS011;1591;51.486;7.146;2022-10-16T22:13:41;19.07;;;14.43;;
3159;SDS011;1591;51.486;7.146;2022-10-16T22:16:09;27.00;;;15.10;;
3159;SDS011;1591;51.486;7.146;2022-10-16T22:18:37;22.20;;;14.23;;
3159;SDS011;1591;51.486;7.146;2022-10-16T22:21:05;20.73;;;14.77;;
3159;SDS011;1591;51.486;7.146;2022-10-16T22:23:34;17.77;;;12.40;;
3159;SDS011;1591;51.486;7.146;2022-10-16T22:26:02;19.53;;;10.87;;
3159;SDS011;1591;51.486;7.146;2022-10-16T22:28:31;15.90;;;11.50;;
3159;SDS011;1591;51.486;7.146;2022-10-16T22:30:59;15.33;;;11.00;;
3159;SDS011;1591;51.486;7.146;2022-10-16T22:33:29;12.50;;;10.00;;
3159;SDS011;1591;51.486;7.146;2022-10-16T22:35:58;20.20;;;11.03;;